sensor_id;sensor_type;location;lat;lon;timestamp;pressure;altitude;pressure_sealevel;temperature;humidity
41945;BME280;63122;52.424;13.458;2022-12-20T00:01:50;101166.19;;;2.03;100.00
41945;BME280;63122;52.424;13.458;2022-12-20T00:04:21;101165.34;;;2.02;100.00
41945;BME280;63122;52.424;13.458;2022-12-20T00:06:54;101169.53;;;2.05;100.00
41945;BME280;63122;52.424;13.458;2022-12-20T00:09:24;101183.31;;;2.07;100.00
41945;BME280;63122;52.424;13.458;2022-12-20T00:11:55;101165.75;;;2.10;100.00
41945;BME280;63122;52.424;13.458;2022-12-20T00:14:26;101156.28;;;2.09;100.00
41945;BME280;63122;52.424;13.458;2022-12-20T00:16:57;101151.31;;;2.05;100.00
41945;BME280;63122;52.424;13.458;2022-12-20T00:19:28;101154.00;;;2.19;100.00
41945;BME280;63122;52.424;13.458;2022-12-20T00:22:01;101153.34;;;2.15;100.00
41945;BME280;63122;52.424;13.458;2022-12-20T00:24:31;101148.63;;;2.22;100.00
41945;BME280;63122;52.424;13.458;2022-12-20T00:27:04;101158.38;;;2.19;100.00
41945;BME280;63122;52.424;13.458;2022-12-20T00:29:34;101166.69;;;2.25;100.00
41945;BME280;63122;52.424;13.458;2022-12-20T00:32:05;101165.59;;;2.29;100.00
41945;BME280;63122;52.424;13.458;2022-12-20T00:34:36;101140.72;;;2.40;100.00
41945;BME280;63122;52.424;13.458;2022-12-20T00:37:10;101145.19;;;2.38;100.00
41945;BME280;63122;52.424;13.458;2022-12-20T00:39:41;101131.72;;;2.29;100.00
41945;BME280;63122;52.424;13.458;2022-12-20T00:42:11;101123.34;;;2.24;100.00
41945;BME280;63122;52.424;13.458;2022-12-20T00:44:42;101141.66;;;2.23;100.00
41945;BME280;63122;52.424;13.458;2022-12-20T00:47:12;101143.50;;;2.21;100.00
41945;BME280;63122;52.424;13.458;2022-12-20T00:49:44;101137.13;;;2.26;100.00
41945;BME280;63122;52.424;13.458;2022-12-20T00:52:17;101142.91;;;2.32;100.00
41945;BME280;63122;52.424;13.458;2022-12-20T00:54:48;101143.34;;;2.24;100.00
41945;BME280;63122;52.424;13.458;2022-12-20T00:57:21;101156.94;;;2.29;100.00
41945;BME280;63122;52.424;13.458;2022-12-20T00:59:52;101147.19;;;2.33;100.00
41945;BME280;63122;52.424;13.458;2022-12-20T01:02:23;101143.94;;;2.29;100.00
41945;BME280;63122;52.424;13.458;2022-12-20T01:04:54;101139.38;;;2.33;100.00
41945;BME280;63122;52.424;13.458;2022-12-20T01:07:28;101138.38;;;2.35;100.00
41945;BME280;63122;52.424;13.458;2022-12-20T01:09:59;101138.53;;;2.32;100.00
41945;BME280;63122;52.424;13.458;2022-12-20T01:12:30;101140.22;;;2.33;100.00
41945;BME280;63122;52.424;13.458;2022-12-20T01:15:01;101142.91;;;2.32;100.00
41945;BME280;63122;52.424;13.458;2022-12-20T01:17:32;101136.69;;;2.34;100.00
41945;BME280;63122;52.424;13.458;2022-12-20T01:20:04;101138.63;;;2.30;100.00
41945;BME280;63122;52.424;13.458;2022-12-20T01:22:37;101135.84;;;2.34;100.00
41945;BME280;63122;52.424;13.458;2022-12-20T01:25:14;101147.53;;;2.26;100.00
41945;BME280;63122;52.424;13.458;2022-12-20T01:27:44;101143.47;;;2.37;100.00
41945;BME280;63122;52.424;13.458;2022-12-20T01:30:16;101155.09;;;2.31;100.00
41945;BME280;63122;52.424;13.458;2022-12-20T01:32:47;101145.34;;;2.35;100.00
41945;BME280;63122;52.424;13.458;2022-12-20T01:35:20;101135.66;;;2.37;100.00
41945;BME280;63122;52.424;13.458;2022-12-20T01:37:53;101134.09;;;2.34;100.00
41945;BME280;63122;52.424;13.458;2022-12-20T01:40:24;101137.25;;;2.39;100.00
41945;BME280;63122;52.424;13.458;2022-12-20T01:42:54;101128.34;;;2.43;100.00
41945;BME280;63122;52.424;13.458;2022-12-20T01:45:28;101133.56;;;2.43;100.00
41945;BME280;63122;52.424;13.458;2022-12-20T01:48:00;101130.19;;;2.41;100.00
41945;BME280;63122;52.424;13.458;2022-12-20T01:50:32;101132.44;;;2.48;100.00
41945;BME280;63122;52.424;13.458;2022-12-20T01:53:06;101122.03;;;2.48;100.00
41945;BME280;63122;52.424;13.458;2022-12-20T01:55:37;101114.31;;;2.46;100.00
41945;BME280;63122;52.424;13.458;2022-12-20T01:58:11;101117.94;;;2.43;100.00
41945;BME280;63122;52.424;13.458;2022-12-20T02:00:42;101119.53;;;2.46;100.00
41945;BME280;63122;52.424;13.458;2022-12-20T02:03:13;101123.06;;;2.45;100.00
41945;BME280;63122;52.424;13.458;2022-12-20T02:05:46;101122.22;;;2.44;100.00
41945;BME280;63122;52.424;13.458;2022-12-20T02:08:19;101111.78;;;2.44;100.00
41945;BME280;63122;52.424;13.458;2022-12-20T02:11:02;101114.59;;;2.41;100.00
41945;BME280;63122;52.424;13.458;2022-12-20T02:13:44;101112.53;;;2.47;100.00
41945;BME280;63122;52.424;13.458;2022-12-20T02:16:23;101120.09;;;2.51;100.00
41945;BME280;63122;52.424;13.458;2022-12-20T02:19:09;101114.72;;;2.54;100.00
41945;BME280;63122;52.424;13.458;2022-12-20T02:21:48;101116.50;;;2.54;100.00
41945;BME280;63122;52.424;13.458;2022-12-20T02:24:50;101112.78;;;2.58;100.00
41945;BME280;63122;52.424;13.458;2022-12-20T02:27:46;101133.19;;;2.66;100.00
41945;BME280;63122;52.424;13.458;2022-12-20T02:30:26;101114.66;;;2.70;100.00
41945;BME280;63122;52.424;13.458;2022-12-20T02:33:01;101118.56;;;2.63;100.00
41945;BME280;63122;52.424;13.458;2022-12-20T02:35:34;101105.84;;;2.73;100.00
41945;BME280;63122;52.424;13.458;2022-12-20T02:38:25;101089.84;;;2.79;100.00
41945;BME280;63122;52.424;13.458;2022-12-20T02:40:57;101110.03;;;2.76;100.00
41945;BME280;63122;52.424;13.458;2022-12-20T02:43:30;101098.59;;;2.78;100.00
41945;BME280;63122;52.424;13.458;2022-12-20T02:46:25;101094.38;;;2.76;100.00
41945;BME280;63122;52.424;13.458;2022-12-20T02:49:00;101079.41;;;2.79;100.00
41945;BME280;63122;52.424;13.458;2022-12-20T02:51:32;101101.19;;;2.78;100.00
41945;BME280;63122;52.424;13.458;2022-12-20T02:54:03;101098.50;;;2.80;100.00
41945;BME280;63122;52.424;13.458;2022-12-20T02:56:37;101086.22;;;2.82;100.00
41945;BME280;63122;52.424;13.458;2022-12-20T02:59:13;101072.72;;;2.90;100.00
41945;BME280;63122;52.424;13.458;2022-12-20T03:01:49;101076.06;;;2.92;100.00
41945;BME280;63122;52.424;13.458;2022-12-20T03:04:22;101071.53;;;2.95;100.00
41945;BME280;63122;52.424;13.458;2022-12-20T03:06:58;101063.97;;;2.91;100.00
41945;BME280;63122;52.424;13.458;2022-12-20T03:09:30;101068.84;;;2.97;100.00
41945;BME280;63122;52.424;13.458;2022-12-20T03:12:00;101061.66;;;3.00;100.00
41945;BME280;63122;52.424;13.458;2022-12-20T03:14:31;101060.34;;;2.93;100.00
41945;BME280;63122;52.424;13.458;2022-12-20T03:17:04;101058.41;;;2.97;100.00
41945;BME280;63122;52.424;13.458;2022-12-20T03:19:34;101053.00;;;3.00;100.00
41945;BME280;63122;52.424;13.458;2022-12-20T03:22:04;101057.28;;;3.01;100.00
41945;BME280;63122;52.424;13.458;2022-12-20T03:24:35;101050.50;;;2.98;100.00
41945;BME280;63122;52.424;13.458;2022-12-20T03:27:05;101069.59;;;2.99;100.00
41945;BME280;63122;52.424;13.458;2022-12-20T03:29:35;101056.44;;;3.00;100.00
41945;BME280;63122;52.424;13.458;2022-12-20T03:32:08;101059.59;;;3.06;100.00
41945;BME280;63122;52.424;13.458;2022-12-20T03:34:38;101052.09;;;3.01;100.00
41945;BME280;63122;52.424;13.458;2022-12-20T03:37:08;101053.84;;;3.00;100.00
41945;BME280;63122;52.424;13.458;2022-12-20T03:39:38;101046.56;;;3.06;100.00
41945;BME280;63122;52.424;13.458;2022-12-20T03:42:08;101051.91;;;3.04;100.00
41945;BME280;63122;52.424;13.458;2022-12-20T03:44:39;101062.41;;;3.02;100.00
41945;BME280;63122;52.424;13.458;2022-12-20T03:47:12;101071.63;;;3.08;100.00
41945;BME280;63122;52.424;13.458;2022-12-20T03:49:42;101081.31;;;3.06;100.00
41945;BME280;63122;52.424;13.458;2022-12-20T03:52:15;101076.03;;;3.08;100.00
41945;BME280;63122;52.424;13.458;2022-12-20T03:54:45;101077.03;;;3.05;100.00
41945;BME280;63122;52.424;13.458;2022-12-20T03:57:15;101076.09;;;3.06;100.00
41945;BME280;63122;52.424;13.458;2022-12-20T03:59:45;101068.09;;;3.09;100.00
41945;BME280;63122;52.424;13.458;2022-12-20T04:02:19;101063.88;;;3.07;100.00
41945;BME280;63122;52.424;13.458;2022-12-20T04:04:50;101067.28;;;3.09;100.00
41945;BME280;63122;52.424;13.458;2022-12-20T04:07:20;101060.94;;;3.13;100.00
41945;BME280;63122;52.424;13.458;2022-12-20T04:09:50;101061.56;;;3.16;100.00
41945;BME280;63122;52.424;13.458;2022-12-20T04:12:20;101060.94;;;3.13;100.00
41945;BME280;63122;52.424;13.458;2022-12-20T04:14:51;101064.28;;;3.15;100.00
41945;BME280;63122;52.424;13.458;2022-12-20T04:17:23;101059.88;;;3.15;100.00
41945;BME280;63122;52.424;13.458;2022-12-20T04:19:54;101067.91;;;3.12;100.00
41945;BME280;63122;52.424;13.458;2022-12-20T04:22:23;101063.81;;;3.23;100.00
41945;BME280;63122;52.424;13.458;2022-12-20T04:24:54;101065.56;;;3.22;100.00
41945;BME280;63122;52.424;13.458;2022-12-20T04:27:24;101063.63;;;3.26;100.00
41945;BME280;63122;52.424;13.458;2022-12-20T04:29:54;101053.28;;;3.24;100.00
41945;BME280;63122;52.424;13.458;2022-12-20T04:32:27;101039.97;;;3.29;100.00
41945;BME280;63122;52.424;13.458;2022-12-20T04:34:57;101051.34;;;3.28;100.00
41945;BME280;63122;52.424;13.458;2022-12-20T04:37:30;101049.84;;;3.24;100.00
41945;BME280;63122;52.424;13.458;2022-12-20T04:40:01;101040.03;;;3.27;100.00
41945;BME280;63122;52.424;13.458;2022-12-20T04:42:31;101027.94;;;3.26;100.00
41945;BME280;63122;52.424;13.458;2022-12-20T04:45:02;101044.63;;;3.24;100.00
41945;BME280;63122;52.424;13.458;2022-12-20T04:47:35;101066.44;;;3.23;100.00
41945;BME280;63122;52.424;13.458;2022-12-20T04:50:07;101055.41;;;3.17;100.00
41945;BME280;63122;52.424;13.458;2022-12-20T04:52:37;101048.34;;;3.20;100.00
41945;BME280;63122;52.424;13.458;2022-12-20T04:55:20;101038.00;;;3.18;100.00
41945;BME280;63122;52.424;13.458;2022-12-20T04:57:51;101037.66;;;3.10;100.00
41945;BME280;63122;52.424;13.458;2022-12-20T05:00:21;101046.09;;;3.13;100.00
41945;BME280;63122;52.424;13.458;2022-12-20T05:02:54;101045.09;;;3.16;100.00
41945;BME280;63122;52.424;13.458;2022-12-20T05:05:25;101046.88;;;3.01;100.00
41945;BME280;63122;52.424;13.458;2022-12-20T05:07:56;101049.94;;;3.08;100.00
41945;BME280;63122;52.424;13.458;2022-12-20T05:10:26;101034.38;;;3.06;100.00
41945;BME280;63122;52.424;13.458;2022-12-20T05:12:57;101025.63;;;3.07;100.00
41945;BME280;63122;52.424;13.458;2022-12-20T05:15:35;101021.91;;;3.11;100.00
41945;BME280;63122;52.424;13.458;2022-12-20T05:18:08;101032.53;;;3.08;100.00
41945;BME280;63122;52.424;13.458;2022-12-20T05:20:41;101046.22;;;3.12;100.00
41945;BME280;63122;52.424;13.458;2022-12-20T05:23:11;101033.81;;;3.15;100.00
41945;BME280;63122;52.424;13.458;2022-12-20T05:25:55;101041.75;;;3.14;100.00
41945;BME280;63122;52.424;13.458;2022-12-20T05:28:38;101039.34;;;3.11;100.00
41945;BME280;63122;52.424;13.458;2022-12-20T05:31:08;101031.31;;;3.14;100.00
41945;BME280;63122;52.424;13.458;2022-12-20T05:33:41;101019.97;;;3.15;100.00
41945;BME280;63122;52.424;13.458;2022-12-20T05:36:12;101027.13;;;3.11;100.00
41945;BME280;63122;52.424;13.458;2022-12-20T05:38:42;101020.16;;;3.12;100.00
41945;BME280;63122;52.424;13.458;2022-12-20T05:41:12;101025.38;;;3.12;100.00
41945;BME280;63122;52.424;13.458;2022-12-20T05:43:42;101015.13;;;3.09;100.00
41945;BME280;63122;52.424;13.458;2022-12-20T05:46:12;101022.75;;;3.12;100.00
41945;BME280;63122;52.424;13.458;2022-12-20T05:48:45;101014.81;;;3.13;100.00
41945;BME280;63122;52.424;13.458;2022-12-20T05:51:15;101027.66;;;3.16;100.00
41945;BME280;63122;52.424;13.458;2022-12-20T05:53:46;101008.88;;;3.26;100.00
41945;BME280;63122;52.424;13.458;2022-12-20T05:56:16;101022.91;;;3.23;100.00
41945;BME280;63122;52.424;13.458;2022-12-20T05:58:46;101009.81;;;3.25;100.00
41945;BME280;63122;52.424;13.458;2022-12-20T06:01:16;101017.44;;;3.28;100.00
41945;BME280;63122;52.424;13.458;2022-12-20T06:03:49;101006.44;;;3.23;100.00
41945;BME280;63122;52.424;13.458;2022-12-20T06:06:19;101009.28;;;3.33;100.00
41945;BME280;63122;52.424;13.458;2022-12-20T06:08:49;101010.63;;;3.40;100.00
41945;BME280;63122;52.424;13.458;2022-12-20T06:11:20;101013.41;;;3.37;100.00
41945;BME280;63122;52.424;13.458;2022-12-20T06:13:59;101005.94;;;3.45;100.00
41945;BME280;63122;52.424;13.458;2022-12-20T06:16:30;101014.97;;;3.39;100.00
41945;BME280;63122;52.424;13.458;2022-12-20T06:19:02;101017.94;;;3.48;100.00
41945;BME280;63122;52.424;13.458;2022-12-20T06:21:33;101021.59;;;3.45;100.00
41945;BME280;63122;52.424;13.458;2022-12-20T06:24:04;101025.75;;;3.48;100.00
41945;BME280;63122;52.424;13.458;2022-12-20T06:26:35;101033.03;;;3.57;100.00
41945;BME280;63122;52.424;13.458;2022-12-20T06:29:05;101028.81;;;3.54;100.00
41945;BME280;63122;52.424;13.458;2022-12-20T06:31:36;101034.16;;;3.53;100.00
41945;BME280;63122;52.424;13.458;2022-12-20T06:34:09;101043.53;;;3.55;100.00
41945;BME280;63122;52.424;13.458;2022-12-20T06:36:39;101027.81;;;3.57;100.00
41945;BME280;63122;52.424;13.458;2022-12-20T06:39:09;101030.22;;;3.60;100.00
41945;BME280;63122;52.424;13.458;2022-12-20T06:41:40;101044.66;;;3.66;100.00
41945;BME280;63122;52.424;13.458;2022-12-20T06:44:10;101039.78;;;3.74;100.00
41945;BME280;63122;52.424;13.458;2022-12-20T06:46:40;101046.03;;;3.71;100.00
41945;BME280;63122;52.424;13.458;2022-12-20T06:49:13;101042.88;;;3.66;100.00
41945;BME280;63122;52.424;13.458;2022-12-20T06:51:44;101042.78;;;3.68;100.00
41945;BME280;63122;52.424;13.458;2022-12-20T06:54:14;101038.69;;;3.64;100.00
41945;BME280;63122;52.424;13.458;2022-12-20T06:56:45;101051.56;;;3.67;100.00
41945;BME280;63122;52.424;13.458;2022-12-20T06:59:27;101052.09;;;3.72;100.00
41945;BME280;63122;52.424;13.458;2022-12-20T07:01:57;101046.34;;;3.67;100.00
41945;BME280;63122;52.424;13.458;2022-12-20T07:04:31;101051.56;;;3.67;100.00
41945;BME280;63122;52.424;13.458;2022-12-20T07:07:02;101040.72;;;3.73;100.00
41945;BME280;63122;52.424;13.458;2022-12-20T07:09:32;101044.75;;;3.64;100.00
41945;BME280;63122;52.424;13.458;2022-12-20T07:12:04;101040.72;;;3.73;100.00
41945;BME280;63122;52.424;13.458;2022-12-20T07:14:34;101033.09;;;3.70;100.00
41945;BME280;63122;52.424;13.458;2022-12-20T07:17:05;101028.88;;;3.67;100.00
41945;BME280;63122;52.424;13.458;2022-12-20T07:19:40;101031.22;;;3.72;100.00
41945;BME280;63122;52.424;13.458;2022-12-20T07:22:17;101043.31;;;3.73;100.00
41945;BME280;63122;52.424;13.458;2022-12-20T07:24:47;101041.72;;;3.70;100.00
41945;BME280;63122;52.424;13.458;2022-12-20T07:27:17;101048.53;;;3.73;100.00
41945;BME280;63122;52.424;13.458;2022-12-20T07:29:50;101046.34;;;3.67;100.00
41945;BME280;63122;52.424;13.458;2022-12-20T07:32:21;101045.69;;;3.63;100.00
41945;BME280;63122;52.424;13.458;2022-12-20T07:34:54;101049.38;;;3.73;100.00
41945;BME280;63122;52.424;13.458;2022-12-20T07:37:27;101058.97;;;3.73;100.00
41945;BME280;63122;52.424;13.458;2022-12-20T07:39:57;101056.38;;;3.73;100.00
41945;BME280;63122;52.424;13.458;2022-12-20T07:42:28;101057.66;;;3.80;100.00
41945;BME280;63122;52.424;13.458;2022-12-20T07:45:06;101062.03;;;3.80;100.00
41945;BME280;63122;52.424;13.458;2022-12-20T07:47:37;101059.25;;;3.83;100.00
41945;BME280;63122;52.424;13.458;2022-12-20T07:50:10;101065.53;;;3.93;100.00
41945;BME280;63122;52.424;13.458;2022-12-20T07:52:42;101064.88;;;3.89;100.00
41945;BME280;63122;52.424;13.458;2022-12-20T07:55:15;101069.16;;;3.91;100.00
41945;BME280;63122;52.424;13.458;2022-12-20T07:57:50;101062.09;;;3.93;100.00
41945;BME280;63122;52.424;13.458;2022-12-20T08:00:23;101057.81;;;3.92;100.00
41945;BME280;63122;52.424;13.458;2022-12-20T08:02:58;101058.34;;;3.97;100.00
41945;BME280;63122;52.424;13.458;2022-12-20T08:05:36;101064.59;;;3.94;100.00
41945;BME280;63122;52.424;13.458;2022-12-20T08:08:08;101064.06;;;3.89;100.00
41945;BME280;63122;52.424;13.458;2022-12-20T08:10:38;101065.81;;;3.88;100.00
41945;BME280;63122;52.424;13.458;2022-12-20T08:13:09;101066.56;;;3.91;100.00
41945;BME280;63122;52.424;13.458;2022-12-20T08:15:39;101063.03;;;3.92;100.00
41945;BME280;63122;52.424;13.458;2022-12-20T08:18:10;101071.78;;;3.91;100.00
41945;BME280;63122;52.424;13.458;2022-12-20T08:20:43;101070.88;;;3.92;100.00
41945;BME280;63122;52.424;13.458;2022-12-20T08:23:15;101076.44;;;4.00;100.00
41945;BME280;63122;52.424;13.458;2022-12-20T08:25:46;101063.88;;;3.92;100.00
41945;BME280;63122;52.424;13.458;2022-12-20T08:28:16;101057.63;;;3.95;100.00
41945;BME280;63122;52.424;13.458;2022-12-20T08:30:50;101070.34;;;3.99;100.00
41945;BME280;63122;52.424;13.458;2022-12-20T08:33:21;101054.88;;;3.96;100.00
41945;BME280;63122;52.424;13.458;2022-12-20T08:35:59;101048.72;;;3.97;100.00
41945;BME280;63122;52.424;13.458;2022-12-20T08:38:30;101055.44;;;4.01;100.00
41945;BME280;63122;52.424;13.458;2022-12-20T08:41:01;101039.75;;;4.01;100.00
41945;BME280;63122;52.424;13.458;2022-12-20T08:43:33;101038.75;;;4.04;100.00
41945;BME280;63122;52.424;13.458;2022-12-20T08:46:09;101052.72;;;4.03;100.00
41945;BME280;63122;52.424;13.458;2022-12-20T08:48:40;101041.44;;;4.02;100.00
41945;BME280;63122;52.424;13.458;2022-12-20T08:51:13;101049.91;;;4.06;100.00
41945;BME280;63122;52.424;13.458;2022-12-20T08:53:44;101057.94;;;4.03;100.00
41945;BME280;63122;52.424;13.458;2022-12-20T08:56:16;101059.53;;;4.06;100.00
41945;BME280;63122;52.424;13.458;2022-12-20T08:58:48;101058.09;;;4.14;100.00
41945;BME280;63122;52.424;13.458;2022-12-20T09:01:19;101062.78;;;4.09;100.00
41945;BME280;63122;52.424;13.458;2022-12-20T09:03:50;101059.13;;;4.12;100.00
41945;BME280;63122;52.424;13.458;2022-12-20T09:06:26;101052.84;;;4.14;100.00
41945;BME280;63122;52.424;13.458;2022-12-20T09:08:58;101047.84;;;4.11;100.00
41945;BME280;63122;52.424;13.458;2022-12-20T09:11:30;101042.13;;;4.19;100.00
41945;BME280;63122;52.424;13.458;2022-12-20T09:14:00;101050.59;;;4.23;100.00
41945;BME280;63122;52.424;13.458;2022-12-20T09:16:31;101034.19;;;4.21;100.00
41945;BME280;63122;52.424;13.458;2022-12-20T09:19:03;101036.69;;;4.22;100.00
41945;BME280;63122;52.424;13.458;2022-12-20T09:21:36;101032.94;;;4.26;100.00
41945;BME280;63122;52.424;13.458;2022-12-20T09:24:08;101032.31;;;4.23;100.00
41945;BME280;63122;52.424;13.458;2022-12-20T09:26:38;101035.03;;;4.21;100.00
41945;BME280;63122;52.424;13.458;2022-12-20T09:29:12;101037.13;;;4.29;100.00
41945;BME280;63122;52.424;13.458;2022-12-20T09:31:51;101036.22;;;4.43;100.00
41945;BME280;63122;52.424;13.458;2022-12-20T09:34:21;101049.47;;;4.40;100.00
41945;BME280;63122;52.424;13.458;2022-12-20T09:36:54;101039.78;;;4.42;100.00
41945;BME280;63122;52.424;13.458;2022-12-20T09:39:24;101033.47;;;4.44;100.00
41945;BME280;63122;52.424;13.458;2022-12-20T09:41:54;101038.13;;;4.54;100.00
41945;BME280;63122;52.424;13.458;2022-12-20T09:44:28;101025.44;;;4.60;100.00
41945;BME280;63122;52.424;13.458;2022-12-20T09:47:03;101034.22;;;4.59;100.00
41945;BME280;63122;52.424;13.458;2022-12-20T09:49:40;101021.59;;;4.53;100.00
41945;BME280;63122;52.424;13.458;2022-12-20T09:52:38;101020.03;;;4.64;100.00
41945;BME280;63122;52.424;13.458;2022-12-20T09:55:19;101020.66;;;4.67;100.00
41945;BME280;63122;52.424;13.458;2022-12-20T09:58:05;101029.84;;;4.73;100.00
41945;BME280;63122;52.424;13.458;2022-12-20T10:00:46;101029.66;;;4.76;100.00
41945;BME280;63122;52.424;13.458;2022-12-20T10:03:23;101024.84;;;4.83;100.00
41945;BME280;63122;52.424;13.458;2022-12-20T10:05:57;101020.66;;;4.93;100.00
41945;BME280;63122;52.424;13.458;2022-12-20T10:08:44;101019.41;;;4.99;100.00
41945;BME280;63122;52.424;13.458;2022-12-20T10:11:34;101028.47;;;5.06;100.00
41945;BME280;63122;52.424;13.458;2022-12-20T10:14:28;101021.56;;;5.18;100.00
41945;BME280;63122;52.424;13.458;2022-12-20T10:17:04;101023.94;;;5.21;100.00
41945;BME280;63122;52.424;13.458;2022-12-20T10:19:54;101018.72;;;5.21;100.00
41945;BME280;63122;52.424;13.458;2022-12-20T10:22:35;101010.28;;;5.17;100.00
41945;BME280;63122;52.424;13.458;2022-12-20T10:25:16;101014.19;;;5.36;100.00
41945;BME280;63122;52.424;13.458;2022-12-20T10:27:53;101010.06;;;5.21;100.00
41945;BME280;63122;52.424;13.458;2022-12-20T10:30:31;101009.31;;;5.18;100.00
41945;BME280;63122;52.424;13.458;2022-12-20T10:33:02;101002.31;;;5.19;100.00
41945;BME280;63122;52.424;13.458;2022-12-20T10:35:36;100996.09;;;5.33;100.00
41945;BME280;63122;52.424;13.458;2022-12-20T10:38:08;100997.66;;;5.36;100.00
41945;BME280;63122;52.424;13.458;2022-12-20T10:40:58;100982.03;;;5.47;100.00
41945;BME280;63122;52.424;13.458;2022-12-20T10:43:59;100981.25;;;5.58;100.00
41945;BME280;63122;52.424;13.458;2022-12-20T10:46:35;100977.47;;;5.62;100.00
41945;BME280;63122;52.424;13.458;2022-12-20T10:49:26;100964.44;;;5.73;100.00
41945;BME280;63122;52.424;13.458;2022-12-20T10:52:00;100960.06;;;5.85;100.00
41945;BME280;63122;52.424;13.458;2022-12-20T10:54:36;100955.50;;;6.00;100.00
41945;BME280;63122;52.424;13.458;2022-12-20T10:57:17;100957.91;;;6.03;100.00
41945;BME280;63122;52.424;13.458;2022-12-20T10:59:51;100943.25;;;6.01;100.00
41945;BME280;63122;52.424;13.458;2022-12-20T11:02:27;100939.69;;;6.02;100.00
41945;BME280;63122;52.424;13.458;2022-12-20T11:05:20;100943.72;;;6.06;100.00
41945;BME280;63122;52.424;13.458;2022-12-20T11:07:55;100936.41;;;5.98;100.00
41945;BME280;63122;52.424;13.458;2022-12-20T11:11:12;100931.16;;;5.98;100.00
41945;BME280;63122;52.424;13.458;2022-12-20T11:13:46;100922.28;;;6.01;100.00
41945;BME280;63122;52.424;13.458;2022-12-20T11:16:28;100919.16;;;5.96;100.00
41945;BME280;63122;52.424;13.458;2022-12-20T11:19:34;100917.34;;;5.96;100.00
41945;BME280;63122;52.424;13.458;2022-12-20T11:22:15;100913.69;;;5.99;100.00
41945;BME280;63122;52.424;13.458;2022-12-20T11:24:53;100916.97;;;6.02;100.00
41945;BME280;63122;52.424;13.458;2022-12-20T11:27:36;100929.63;;;5.96;100.00
41945;BME280;63122;52.424;13.458;2022-12-20T11:30:18;100917.59;;;5.93;100.00
41945;BME280;63122;52.424;13.458;2022-12-20T11:33:07;100904.56;;;6.04;100.00
41945;BME280;63122;52.424;13.458;2022-12-20T11:35:50;100885.88;;;6.09;100.00
41945;BME280;63122;52.424;13.458;2022-12-20T11:38:34;100888.38;;;6.11;100.00
41945;BME280;63122;52.424;13.458;2022-12-20T11:41:17;100890.41;;;6.07;100.00
41945;BME280;63122;52.424;13.458;2022-12-20T11:44:06;100876.47;;;6.07;100.00
41945;BME280;63122;52.424;13.458;2022-12-20T11:47:09;100880.91;;;6.17;100.00
41945;BME280;63122;52.424;13.458;2022-12-20T11:49:59;100884.34;;;6.18;100.00
41945;BME280;63122;52.424;13.458;2022-12-20T11:52:34;100869.09;;;6.12;100.00
41945;BME280;63122;52.424;13.458;2022-12-20T11:55:17;100866.13;;;6.28;100.00
41945;BME280;63122;52.424;13.458;2022-12-20T11:57:54;100877.91;;;6.22;100.00
41945;BME280;63122;52.424;13.458;2022-12-20T12:00:51;100877.47;;;6.28;100.00
41945;BME280;63122;52.424;13.458;2022-12-20T12:03:32;100879.00;;;6.19;100.00
41945;BME280;63122;52.424;13.458;2022-12-20T12:06:14;100894.94;;;6.28;100.00
41945;BME280;63122;52.424;13.458;2022-12-20T12:08:47;100878.75;;;6.23;100.00
41945;BME280;63122;52.424;13.458;2022-12-20T12:11:24;100876.13;;;6.23;100.00
41945;BME280;63122;52.424;13.458;2022-12-20T12:14:30;100874.22;;;6.25;100.00
41945;BME280;63122;52.424;13.458;2022-12-20T12:17:07;100875.19;;;6.24;100.00
41945;BME280;63122;52.424;13.458;2022-12-20T12:19:43;100876.13;;;6.23;100.00
41945;BME280;63122;52.424;13.458;2022-12-20T12:22:22;100867.19;;;6.25;100.00
41945;BME280;63122;52.424;13.458;2022-12-20T12:24:57;100861.13;;;6.25;100.00
41945;BME280;63122;52.424;13.458;2022-12-20T12:27:30;100858.63;;;6.23;100.00
41945;BME280;63122;52.424;13.458;2022-12-20T12:30:01;100859.00;;;6.18;100.00
41945;BME280;63122;52.424;13.458;2022-12-20T12:32:35;100853.50;;;6.22;100.00
41945;BME280;63122;52.424;13.458;2022-12-20T12:35:22;100846.03;;;6.28;100.00
41945;BME280;63122;52.424;13.458;2022-12-20T12:38:14;100854.09;;;6.25;100.00
41945;BME280;63122;52.424;13.458;2022-12-20T12:41:11;100841.59;;;6.29;100.00
41945;BME280;63122;52.424;13.458;2022-12-20T12:43:50;100836.97;;;6.32;100.00
41945;BME280;63122;52.424;13.458;2022-12-20T12:46:24;100831.84;;;6.31;100.00
41945;BME280;63122;52.424;13.458;2022-12-20T12:48:59;100836.84;;;6.45;100.00
41945;BME280;63122;52.424;13.458;2022-12-20T12:51:34;100837.78;;;6.22;100.00
41945;BME280;63122;52.424;13.458;2022-12-20T12:54:24;100823.38;;;6.27;100.00
41945;BME280;63122;52.424;13.458;2022-12-20T12:56:59;100821.94;;;6.23;100.00
41945;BME280;63122;52.424;13.458;2022-12-20T12:59:49;100812.16;;;6.25;100.00
41945;BME280;63122;52.424;13.458;2022-12-20T13:02:32;100803.25;;;6.28;100.00
41945;BME280;63122;52.424;13.458;2022-12-20T13:05:31;100815.41;;;6.29;100.00
41945;BME280;63122;52.424;13.458;2022-12-20T13:08:14;100812.66;;;6.19;100.00
41945;BME280;63122;52.424;13.458;2022-12-20T13:11:00;100797.06;;;6.17;100.00
41945;BME280;63122;52.424;13.458;2022-12-20T13:13:30;100800.97;;;6.23;100.00
41945;BME280;63122;52.424;13.458;2022-12-20T13:16:12;100806.22;;;6.23;100.00
41945;BME280;63122;52.424;13.458;2022-12-20T13:19:35;100803.28;;;6.16;100.00
41945;BME280;63122;52.424;13.458;2022-12-20T13:22:19;100808.13;;;6.10;100.00